sensor_id;sensor_type;location;lat;lon;timestamp;P1;durP1;ratioP1;P2;durP2;ratioP2
60847;SDS011;46681;47.696;9.140;2023-07-29T00:00:28;3.77;;;3.47;;
60847;SDS011;46681;47.696;9.140;2023-07-29T00:02:54;3.50;;;3.20;;
60847;SDS011;46681;47.696;9.140;2023-07-29T00:05:19;3.60;;;3.30;;
60847;SDS011;46681;47.696;9.140;2023-07-29T00:07:45;6.27;;;4.03;;
60847;SDS011;46681;47.696;9.140;2023-07-29T00:10:10;3.93;;;3.53;;
60847;SDS011;46681;47.696;9.140;2023-07-29T00:12:36;3.63;;;3.33;;
60847;SDS011;46681;47.696;9.140;2023-07-29T00:15:01;4.00;;;3.70;;
60847;SDS011;46681;47.696;9.140;2023-07-29T00:17:27;3.37;;;3.13;;
60847;SDS011;46681;47.696;9.140;2023-07-29T00:19:54;3.23;;;2.97;;
60847;SDS011;46681;47.696;9.140;2023-07-29T00:22:20;3.50;;;3.20;;
60847;SDS011;46681;47.696;9.140;2023-07-29T00:24:56;3.70;;;2.80;;
60847;SDS011;46681;47.696;9.140;2023-07-29T00:27:24;3.73;;;3.43;;
60847;SDS011;46681;47.696;9.140;2023-07-29T00:29:49;3.50;;;3.20;;
60847;SDS011;46681;47.696;9.140;2023-07-29T00:32:16;4.63;;;4.23;;
60847;SDS011;46681;47.696;9.140;2023-07-29T00:34:44;4.03;;;3.73;;
60847;SDS011;46681;47.696;9.140;2023-07-29T00:37:11;4.60;;;3.97;;
60847;SDS011;46681;47.696;9.140;2023-07-29T00:39:37;4.63;;;3.77;;
60847;SDS011;46681;47.696;9.140;2023-07-29T00:42:03;4.20;;;3.17;;
60847;SDS011;46681;47.696;9.140;2023-07-29T00:44:29;3.83;;;3.33;;
60847;SDS011;46681;47.696;9.140;2023-07-29T00:46:54;5.33;;;3.63;;
60847;SDS011;46681;47.696;9.140;2023-07-29T00:49:24;3.80;;;3.40;;
60847;SDS011;46681;47.696;9.140;2023-07-29T00:51:51;3.53;;;3.23;;
60847;SDS011;46681;47.696;9.140;2023-07-29T00:54:17;5.80;;;3.43;;
60847;SDS011;46681;47.696;9.140;2023-07-29T00:56:42;4.93;;;3.30;;
60847;SDS011;46681;47.696;9.140;2023-07-29T00:59:10;4.57;;;3.30;;
60847;SDS011;46681;47.696;9.140;2023-07-29T01:01:36;3.57;;;3.17;;
60847;SDS011;46681;47.696;9.140;2023-07-29T01:04:02;3.93;;;3.20;;
60847;SDS011;46681;47.696;9.140;2023-07-29T01:09:30;3.57;;;3.27;;
60847;SDS011;46681;47.696;9.140;2023-07-29T01:12:08;3.90;;;3.50;;
60847;SDS011;46681;47.696;9.140;2023-07-29T01:17:23;3.87;;;3.13;;
60847;SDS011;46681;47.696;9.140;2023-07-29T01:19:57;4.37;;;3.30;;
60847;SDS011;46681;47.696;9.140;2023-07-29T01:22:36;4.40;;;3.27;;
60847;SDS011;46681;47.696;9.140;2023-07-29T01:25:02;3.73;;;3.30;;
60847;SDS011;46681;47.696;9.140;2023-07-29T01:27:28;5.40;;;2.73;;
60847;SDS011;46681;47.696;9.140;2023-07-29T01:29:54;3.90;;;3.43;;
60847;SDS011;46681;47.696;9.140;2023-07-29T01:33:08;3.17;;;2.87;;
60847;SDS011;46681;47.696;9.140;2023-07-29T01:38:05;4.50;;;3.30;;
60847;SDS011;46681;47.696;9.140;2023-07-29T01:40:38;5.03;;;3.03;;
60847;SDS011;46681;47.696;9.140;2023-07-29T01:43:06;3.63;;;3.33;;
60847;SDS011;46681;47.696;9.140;2023-07-29T01:45:32;3.47;;;3.17;;
60847;SDS011;46681;47.696;9.140;2023-07-29T01:48:00;4.37;;;2.67;;
60847;SDS011;46681;47.696;9.140;2023-07-29T01:50:26;3.03;;;2.83;;
60847;SDS011;46681;47.696;9.140;2023-07-29T01:52:53;3.27;;;2.97;;
60847;SDS011;46681;47.696;9.140;2023-07-29T01:55:19;3.33;;;3.03;;
60847;SDS011;46681;47.696;9.140;2023-07-29T01:57:44;4.13;;;3.40;;
60847;SDS011;46681;47.696;9.140;2023-07-29T02:00:10;2.83;;;2.63;;
60847;SDS011;46681;47.696;9.140;2023-07-29T02:02:41;4.70;;;3.17;;
60847;SDS011;46681;47.696;9.140;2023-07-29T02:05:06;3.47;;;3.17;;
60847;SDS011;46681;47.696;9.140;2023-07-29T02:07:34;3.57;;;3.27;;
60847;SDS011;46681;47.696;9.140;2023-07-29T02:10:01;3.13;;;2.90;;
60847;SDS011;46681;47.696;9.140;2023-07-29T02:12:27;3.10;;;2.90;;
60847;SDS011;46681;47.696;9.140;2023-07-29T02:14:52;2.83;;;2.63;;
60847;SDS011;46681;47.696;9.140;2023-07-29T02:17:18;3.47;;;3.20;;
60847;SDS011;46681;47.696;9.140;2023-07-29T02:19:44;3.87;;;3.47;;
60847;SDS011;46681;47.696;9.140;2023-07-29T02:22:10;6.27;;;3.03;;
60847;SDS011;46681;47.696;9.140;2023-07-29T02:24:38;3.70;;;3.10;;
60847;SDS011;46681;47.696;9.140;2023-07-29T02:27:03;2.73;;;2.53;;
60847;SDS011;46681;47.696;9.140;2023-07-29T02:29:29;3.33;;;3.03;;
60847;SDS011;46681;47.696;9.140;2023-07-29T02:31:54;3.20;;;2.90;;
60847;SDS011;46681;47.696;9.140;2023-07-29T02:34:20;3.80;;;3.50;;
60847;SDS011;46681;47.696;9.140;2023-07-29T02:36:48;4.47;;;3.20;;
60847;SDS011;46681;47.696;9.140;2023-07-29T02:39:16;4.97;;;3.33;;
60847;SDS011;46681;47.696;9.140;2023-07-29T02:41:42;5.07;;;3.10;;
60847;SDS011;46681;47.696;9.140;2023-07-29T02:44:11;8.47;;;3.40;;
60847;SDS011;46681;47.696;9.140;2023-07-29T02:46:36;3.77;;;3.47;;
60847;SDS011;46681;47.696;9.140;2023-07-29T02:49:02;4.40;;;2.93;;
60847;SDS011;46681;47.696;9.140;2023-07-29T02:51:28;3.93;;;3.30;;
60847;SDS011;46681;47.696;9.140;2023-07-29T02:53:54;5.33;;;3.30;;
60847;SDS011;46681;47.696;9.140;2023-07-29T02:56:19;4.57;;;3.43;;
60847;SDS011;46681;47.696;9.140;2023-07-29T02:58:45;3.83;;;3.53;;
60847;SDS011;46681;47.696;9.140;2023-07-29T03:01:10;3.83;;;3.20;;
60847;SDS011;46681;47.696;9.140;2023-07-29T03:03:36;3.47;;;3.20;;
60847;SDS011;46681;47.696;9.140;2023-07-29T03:06:02;3.00;;;2.80;;
60847;SDS011;46681;47.696;9.140;2023-07-29T03:08:29;3.30;;;3.00;;
60847;SDS011;46681;47.696;9.140;2023-07-29T03:10:55;3.23;;;2.60;;
60847;SDS011;46681;47.696;9.140;2023-07-29T03:13:23;3.37;;;3.07;;
60847;SDS011;46681;47.696;9.140;2023-07-29T03:15:51;3.40;;;3.10;;
60847;SDS011;46681;47.696;9.140;2023-07-29T03:18:17;3.83;;;3.00;;
60847;SDS011;46681;47.696;9.140;2023-07-29T03:20:42;2.90;;;2.60;;
60847;SDS011;46681;47.696;9.140;2023-07-29T03:23:08;3.10;;;2.90;;
60847;SDS011;46681;47.696;9.140;2023-07-29T03:25:33;3.00;;;2.73;;
60847;SDS011;46681;47.696;9.140;2023-07-29T03:27:59;3.40;;;2.87;;
60847;SDS011;46681;47.696;9.140;2023-07-29T03:30:27;3.27;;;2.70;;
60847;SDS011;46681;47.696;9.140;2023-07-29T03:32:52;3.17;;;2.87;;
60847;SDS011;46681;47.696;9.140;2023-07-29T03:35:18;2.80;;;2.60;;
60847;SDS011;46681;47.696;9.140;2023-07-29T03:37:45;2.50;;;2.30;;
60847;SDS011;46681;47.696;9.140;2023-07-29T03:40:11;2.87;;;2.67;;
60847;SDS011;46681;47.696;9.140;2023-07-29T03:42:36;2.60;;;2.40;;
60847;SDS011;46681;47.696;9.140;2023-07-29T03:45:02;4.27;;;2.80;;
60847;SDS011;46681;47.696;9.140;2023-07-29T03:47:28;2.73;;;2.30;;
60847;SDS011;46681;47.696;9.140;2023-07-29T03:49:53;2.60;;;2.40;;
60847;SDS011;46681;47.696;9.140;2023-07-29T03:52:19;2.73;;;2.53;;
60847;SDS011;46681;47.696;9.140;2023-07-29T03:54:44;2.50;;;2.30;;
60847;SDS011;46681;47.696;9.140;2023-07-29T03:57:11;2.60;;;2.40;;
60847;SDS011;46681;47.696;9.140;2023-07-29T03:59:37;2.27;;;2.17;;
60847;SDS011;46681;47.696;9.140;2023-07-29T04:02:02;3.07;;;2.40;;
60847;SDS011;46681;47.696;9.140;2023-07-29T04:04:30;2.57;;;2.37;;
60847;SDS011;46681;47.696;9.140;2023-07-29T04:06:56;2.50;;;2.30;;
60847;SDS011;46681;47.696;9.140;2023-07-29T04:09:21;2.67;;;2.47;;
60847;SDS011;46681;47.696;9.140;2023-07-29T04:11:47;3.03;;;2.83;;
60847;SDS011;46681;47.696;9.140;2023-07-29T04:14:12;2.37;;;2.17;;
60847;SDS011;46681;47.696;9.140;2023-07-29T04:16:38;2.53;;;2.40;;
60847;SDS011;46681;47.696;9.140;2023-07-29T04:19:04;2.50;;;2.30;;
60847;SDS011;46681;47.696;9.140;2023-07-29T04:21:29;2.50;;;2.30;;
60847;SDS011;46681;47.696;9.140;2023-07-29T04:23:55;2.63;;;2.43;;
60847;SDS011;46681;47.696;9.140;2023-07-29T04:26:20;2.80;;;2.43;;
60847;SDS011;46681;47.696;9.140;2023-07-29T04:28:46;2.37;;;2.17;;
60847;SDS011;46681;47.696;9.140;2023-07-29T04:31:11;4.33;;;2.20;;
60847;SDS011;46681;47.696;9.140;2023-07-29T04:33:37;2.33;;;2.17;;
60847;SDS011;46681;47.696;9.140;2023-07-29T04:36:02;2.30;;;2.10;;
60847;SDS011;46681;47.696;9.140;2023-07-29T04:38:30;2.50;;;2.30;;
60847;SDS011;46681;47.696;9.140;2023-07-29T04:41:00;2.00;;;1.90;;
60847;SDS011;46681;47.696;9.140;2023-07-29T04:43:32;1.90;;;1.80;;
60847;SDS011;46681;47.696;9.140;2023-07-29T04:46:02;2.43;;;2.23;;
60847;SDS011;46681;47.696;9.140;2023-07-29T04:48:30;2.50;;;2.30;;
60847;SDS011;46681;47.696;9.140;2023-07-29T04:50:56;2.40;;;2.20;;
60847;SDS011;46681;47.696;9.140;2023-07-29T04:53:21;2.20;;;2.10;;
60847;SDS011;46681;47.696;9.140;2023-07-29T04:55:47;2.03;;;1.93;;
60847;SDS011;46681;47.696;9.140;2023-07-29T04:58:12;2.00;;;1.90;;
60847;SDS011;46681;47.696;9.140;2023-07-29T05:00:38;2.10;;;2.00;;
60847;SDS011;46681;47.696;9.140;2023-07-29T05:03:03;2.70;;;2.43;;
60847;SDS011;46681;47.696;9.140;2023-07-29T05:05:29;1.93;;;1.83;;
60847;SDS011;46681;47.696;9.140;2023-07-29T05:07:54;1.77;;;1.67;;
60847;SDS011;46681;47.696;9.140;2023-07-29T05:10:20;2.30;;;2.20;;
60847;SDS011;46681;47.696;9.140;2023-07-29T05:12:45;1.90;;;1.80;;
60847;SDS011;46681;47.696;9.140;2023-07-29T05:15:15;2.10;;;1.90;;
60847;SDS011;46681;47.696;9.140;2023-07-29T05:17:40;2.20;;;2.10;;
60847;SDS011;46681;47.696;9.140;2023-07-29T05:20:06;2.30;;;2.10;;
60847;SDS011;46681;47.696;9.140;2023-07-29T05:22:32;2.57;;;2.40;;
60847;SDS011;46681;47.696;9.140;2023-07-29T05:25:03;2.17;;;2.07;;
60847;SDS011;46681;47.696;9.140;2023-07-29T05:27:29;2.07;;;1.97;;
60847;SDS011;46681;47.696;9.140;2023-07-29T05:29:55;2.07;;;1.90;;
60847;SDS011;46681;47.696;9.140;2023-07-29T05:32:24;2.00;;;1.90;;
60847;SDS011;46681;47.696;9.140;2023-07-29T05:34:52;2.30;;;2.10;;
60847;SDS011;46681;47.696;9.140;2023-07-29T05:37:18;2.57;;;2.17;;
60847;SDS011;46681;47.696;9.140;2023-07-29T05:39:50;2.03;;;1.93;;
60847;SDS011;46681;47.696;9.140;2023-07-29T05:42:15;2.50;;;2.30;;
60847;SDS011;46681;47.696;9.140;2023-07-29T05:44:41;2.23;;;2.13;;
60847;SDS011;46681;47.696;9.140;2023-07-29T05:47:06;2.50;;;2.30;;
60847;SDS011;46681;47.696;9.140;2023-07-29T05:49:36;2.83;;;2.23;;
60847;SDS011;46681;47.696;9.140;2023-07-29T05:52:03;2.20;;;2.10;;
60847;SDS011;46681;47.696;9.140;2023-07-29T05:54:29;2.07;;;1.97;;
60847;SDS011;46681;47.696;9.140;2023-07-29T05:56:55;2.00;;;1.90;;
60847;SDS011;46681;47.696;9.140;2023-07-29T05:59:21;2.50;;;2.40;;
60847;SDS011;46681;47.696;9.140;2023-07-29T06:01:47;2.07;;;1.97;;
60847;SDS011;46681;47.696;9.140;2023-07-29T06:04:12;2.10;;;1.93;;
60847;SDS011;46681;47.696;9.140;2023-07-29T06:06:38;2.13;;;2.03;;
60847;SDS011;46681;47.696;9.140;2023-07-29T06:09:04;2.10;;;2.00;;
60847;SDS011;46681;47.696;9.140;2023-07-29T06:11:33;2.10;;;2.00;;
60847;SDS011;46681;47.696;9.140;2023-07-29T06:14:01;2.27;;;2.03;;
60847;SDS011;46681;47.696;9.140;2023-07-29T06:16:31;2.00;;;1.90;;
60847;SDS011;46681;47.696;9.140;2023-07-29T06:19:02;2.60;;;1.80;;
60847;SDS011;46681;47.696;9.140;2023-07-29T06:21:32;2.20;;;2.10;;
60847;SDS011;46681;47.696;9.140;2023-07-29T06:24:02;2.47;;;1.93;;
60847;SDS011;46681;47.696;9.140;2023-07-29T06:26:28;2.30;;;2.10;;
60847;SDS011;46681;47.696;9.140;2023-07-29T06:28:55;2.33;;;2.23;;
60847;SDS011;46681;47.696;9.140;2023-07-29T06:31:20;3.10;;;2.80;;
60847;SDS011;46681;47.696;9.140;2023-07-29T06:33:47;2.37;;;2.20;;
60847;SDS011;46681;47.696;9.140;2023-07-29T06:36:15;2.03;;;1.93;;
60847;SDS011;46681;47.696;9.140;2023-07-29T06:38:44;2.57;;;2.37;;
60847;SDS011;46681;47.696;9.140;2023-07-29T06:41:11;2.70;;;2.50;;
60847;SDS011;46681;47.696;9.140;2023-07-29T06:43:37;3.17;;;2.17;;
60847;SDS011;46681;47.696;9.140;2023-07-29T06:46:05;1.80;;;1.70;;
60847;SDS011;46681;47.696;9.140;2023-07-29T06:48:32;2.00;;;1.90;;
60847;SDS011;46681;47.696;9.140;2023-07-29T06:51:01;2.47;;;2.30;;
60847;SDS011;46681;47.696;9.140;2023-07-29T06:53:30;2.30;;;2.20;;
60847;SDS011;46681;47.696;9.140;2023-07-29T06:55:58;2.10;;;2.00;;
60847;SDS011;46681;47.696;9.140;2023-07-29T06:58:24;2.23;;;2.10;;
60847;SDS011;46681;47.696;9.140;2023-07-29T07:00:50;2.27;;;2.07;;
60847;SDS011;46681;47.696;9.140;2023-07-29T07:03:19;2.63;;;2.43;;
60847;SDS011;46681;47.696;9.140;2023-07-29T07:05:44;2.50;;;2.30;;
60847;SDS011;46681;47.696;9.140;2023-07-29T07:08:15;2.40;;;2.20;;
60847;SDS011;46681;47.696;9.140;2023-07-29T07:10:46;2.70;;;2.10;;
60847;SDS011;46681;47.696;9.140;2023-07-29T07:13:20;2.00;;;1.90;;
60847;SDS011;46681;47.696;9.140;2023-07-29T07:15:50;2.17;;;2.07;;
60847;SDS011;46681;47.696;9.140;2023-07-29T07:18:23;2.37;;;1.90;;
60847;SDS011;46681;47.696;9.140;2023-07-29T07:20:49;2.20;;;2.10;;
60847;SDS011;46681;47.696;9.140;2023-07-29T07:23:16;2.43;;;2.23;;
60847;SDS011;46681;47.696;9.140;2023-07-29T07:25:43;2.17;;;1.97;;
60847;SDS011;46681;47.696;9.140;2023-07-29T07:28:15;3.03;;;2.13;;
60847;SDS011;46681;47.696;9.140;2023-07-29T07:30:43;2.10;;;2.00;;
60847;SDS011;46681;47.696;9.140;2023-07-29T07:33:09;2.03;;;1.77;;
60847;SDS011;46681;47.696;9.140;2023-07-29T07:35:39;2.03;;;1.93;;
60847;SDS011;46681;47.696;9.140;2023-07-29T07:38:11;2.30;;;2.10;;
60847;SDS011;46681;47.696;9.140;2023-07-29T07:40:37;2.27;;;2.17;;
60847;SDS011;46681;47.696;9.140;2023-07-29T07:43:05;2.60;;;2.27;;
60847;SDS011;46681;47.696;9.140;2023-07-29T07:45:31;2.20;;;1.80;;
60847;SDS011;46681;47.696;9.140;2023-07-29T07:47:57;2.17;;;1.97;;
60847;SDS011;46681;47.696;9.140;2023-07-29T07:50:24;2.90;;;2.10;;
60847;SDS011;46681;47.696;9.140;2023-07-29T07:52:59;1.80;;;1.70;;
60847;SDS011;46681;47.696;9.140;2023-07-29T07:55:33;4.50;;;2.00;;
60847;SDS011;46681;47.696;9.140;2023-07-29T07:58:02;2.57;;;2.37;;
60847;SDS011;46681;47.696;9.140;2023-07-29T08:09:44;4.67;;;2.40;;
60847;SDS011;46681;47.696;9.140;2023-07-29T08:13:09;2.70;;;2.50;;
60847;SDS011;46681;47.696;9.140;2023-07-29T08:18:34;4.03;;;2.70;;
60847;SDS011;46681;47.696;9.140;2023-07-29T08:21:14;2.70;;;2.50;;
60847;SDS011;46681;47.696;9.140;2023-07-29T08:27:16;4.23;;;2.70;;
60847;SDS011;46681;47.696;9.140;2023-07-29T08:32:40;2.90;;;2.70;;
60847;SDS011;46681;47.696;9.140;2023-07-29T08:35:34;2.87;;;2.50;;
60847;SDS011;46681;47.696;9.140;2023-07-29T08:38:10;2.77;;;2.57;;
60847;SDS011;46681;47.696;9.140;2023-07-29T08:40:42;3.63;;;2.40;;
60847;SDS011;46681;47.696;9.140;2023-07-29T08:43:39;3.80;;;2.30;;
60847;SDS011;46681;47.696;9.140;2023-07-29T08:55:43;3.17;;;2.40;;
60847;SDS011;46681;47.696;9.140;2023-07-29T09:01:51;2.30;;;2.20;;
60847;SDS011;46681;47.696;9.140;2023-07-29T09:05:07;2.13;;;2.03;;
60847;SDS011;46681;47.696;9.140;2023-07-29T09:08:15;2.37;;;2.17;;
60847;SDS011;46681;47.696;9.140;2023-07-29T09:14:15;2.40;;;2.20;;
60847;SDS011;46681;47.696;9.140;2023-07-29T09:17:09;2.60;;;2.40;;
60847;SDS011;46681;47.696;9.140;2023-07-29T09:19:35;2.37;;;2.20;;
60847;SDS011;46681;47.696;9.140;2023-07-29T09:22:01;2.93;;;2.30;;
60847;SDS011;46681;47.696;9.140;2023-07-29T09:28:10;2.70;;;2.50;;
60847;SDS011;46681;47.696;9.140;2023-07-29T09:37:18;2.40;;;2.30;;
60847;SDS011;46681;47.696;9.140;2023-07-29T09:49:47;2.80;;;2.60;;
60847;SDS011;46681;47.696;9.140;2023-07-29T09:52:48;2.20;;;2.10;;
60847;SDS011;46681;47.696;9.140;2023-07-29T09:58:30;2.43;;;2.33;;
60847;SDS011;46681;47.696;9.140;2023-07-29T10:01:27;2.50;;;2.30;;
60847;SDS011;46681;47.696;9.140;2023-07-29T10:17:04;2.40;;;2.30;;
60847;SDS011;46681;47.696;9.140;2023-07-29T10:20:06;2.37;;;2.17;;
60847;SDS011;46681;47.696;9.140;2023-07-29T10:25:09;2.60;;;2.33;;
60847;SDS011;46681;47.696;9.140;2023-07-29T10:28:12;2.43;;;2.30;;
60847;SDS011;46681;47.696;9.140;2023-07-29T10:31:16;2.50;;;2.30;;
60847;SDS011;46681;47.696;9.140;2023-07-29T10:33:53;2.20;;;2.10;;
60847;SDS011;46681;47.696;9.140;2023-07-29T10:36:27;2.20;;;2.10;;
60847;SDS011;46681;47.696;9.140;2023-07-29T10:39:12;2.57;;;2.37;;
60847;SDS011;46681;47.696;9.140;2023-07-29T10:42:03;2.60;;;2.50;;
60847;SDS011;46681;47.696;9.140;2023-07-29T10:45:03;2.33;;;2.23;;
60847;SDS011;46681;47.696;9.140;2023-07-29T10:47:51;2.20;;;2.07;;
60847;SDS011;46681;47.696;9.140;2023-07-29T11:00:06;2.30;;;1.97;;
60847;SDS011;46681;47.696;9.140;2023-07-29T11:02:40;1.93;;;1.83;;
60847;SDS011;46681;47.696;9.140;2023-07-29T11:05:41;2.57;;;2.37;;
60847;SDS011;46681;47.696;9.140;2023-07-29T11:08:40;3.40;;;2.20;;
60847;SDS011;46681;47.696;9.140;2023-07-29T11:11:46;2.23;;;2.03;;
60847;SDS011;46681;47.696;9.140;2023-07-29T11:14:50;2.23;;;2.10;;
60847;SDS011;46681;47.696;9.140;2023-07-29T11:17:20;2.60;;;2.40;;
60847;SDS011;46681;47.696;9.140;2023-07-29T11:20:31;2.30;;;2.10;;
60847;SDS011;46681;47.696;9.140;2023-07-29T11:23:35;2.20;;;2.00;;
60847;SDS011;46681;47.696;9.140;2023-07-29T11:29:59;2.20;;;2.10;;
60847;SDS011;46681;47.696;9.140;2023-07-29T11:32:38;2.07;;;1.90;;
60847;SDS011;46681;47.696;9.140;2023-07-29T11:38:22;2.20;;;2.10;;
60847;SDS011;46681;47.696;9.140;2023-07-29T11:41:26;2.07;;;1.97;;
60847;SDS011;46681;47.696;9.140;2023-07-29T11:47:07;4.37;;;2.13;;
60847;SDS011;46681;47.696;9.140;2023-07-29T11:53:28;2.13;;;2.00;;
60847;SDS011;46681;47.696;9.140;2023-07-29T12:11:38;1.87;;;1.77;;
60847;SDS011;46681;47.696;9.140;2023-07-29T12:20:55;2.20;;;2.00;;
60847;SDS011;46681;47.696;9.140;2023-07-29T12:24:03;2.10;;;2.00;;
60847;SDS011;46681;47.696;9.140;2023-07-29T12:48:28;2.00;;;1.90;;
60847;SDS011;46681;47.696;9.140;2023-07-29T12:51:40;2.43;;;2.30;;
60847;SDS011;46681;47.696;9.140;2023-07-29T12:54:25;2.53;;;2.33;;
60847;SDS011;46681;47.696;9.140;2023-07-29T12:57:15;2.80;;;2.40;;
60847;SDS011;46681;47.696;9.140;2023-07-29T13:06:14;2.43;;;2.20;;
60847;SDS011;46681;47.696;9.140;2023-07-29T13:08:42;3.50;;;2.27;;
60847;SDS011;46681;47.696;9.140;2023-07-29T13:17:05;2.20;;;2.00;;
60847;SDS011;46681;47.696;9.140;2023-07-29T13:19:39;2.17;;;2.07;;
60847;SDS011;46681;47.696;9.140;2023-07-29T13:22:24;2.23;;;2.13;;
60847;SDS011;46681;47.696;9.140;2023-07-29T13:25:14;2.70;;;2.50;;
60847;SDS011;46681;47.696;9.140;2023-07-29T13:27:53;2.13;;;2.03;;
60847;SDS011;46681;47.696;9.140;2023-07-29T13:30:33;2.60;;;2.40;;
60847;SDS011;46681;47.696;9.140;2023-07-29T13:33:19;2.73;;;2.13;;
60847;SDS011;46681;47.696;9.140;2023-07-29T13:36:15;2.43;;;2.23;;
60847;SDS011;46681;47.696;9.140;2023-07-29T13:39:18;2.67;;;2.10;;
60847;SDS011;46681;47.696;9.140;2023-07-29T13:41:57;4.00;;;2.33;;
60847;SDS011;46681;47.696;9.140;2023-07-29T13:47:55;2.00;;;1.90;;
60847;SDS011;46681;47.696;9.140;2023-07-29T13:53:42;3.37;;;2.47;;
60847;SDS011;46681;47.696;9.140;2023-07-29T13:56:38;2.50;;;2.23;;
60847;SDS011;46681;47.696;9.140;2023-07-29T13:59:18;2.40;;;2.20;;
60847;SDS011;46681;47.696;9.140;2023-07-29T14:01:46;3.67;;;2.27;;
60847;SDS011;46681;47.696;9.140;2023-07-29T14:04:11;2.10;;;1.93;;
60847;SDS011;46681;47.696;9.140;2023-07-29T14:06:53;3.63;;;2.37;;
60847;SDS011;46681;47.696;9.140;2023-07-29T14:09:19;2.17;;;2.03;;
60847;SDS011;46681;47.696;9.140;2023-07-29T14:12:11;1.77;;;1.67;;
60847;SDS011;46681;47.696;9.140;2023-07-29T14:14:43;2.33;;;2.13;;
60847;SDS011;46681;47.696;9.140;2023-07-29T14:17:15;2.00;;;1.80;;
60847;SDS011;46681;47.696;9.140;2023-07-29T14:19:49;2.20;;;1.80;;
60847;SDS011;46681;47.696;9.140;2023-07-29T14:22:24;3.93;;;1.93;;
60847;SDS011;46681;47.696;9.140;2023-07-29T14:25:03;2.23;;;2.03;;
60847;SDS011;46681;47.696;9.140;2023-07-29T14:27:53;3.43;;;2.03;;
60847;SDS011;46681;47.696;9.140;2023-07-29T14:30:24;4.97;;;2.20;;
60847;SDS011;46681;47.696;9.140;2023-07-29T14:33:33;2.13;;;1.97;;
60847;SDS011;46681;47.696;9.140;2023-07-29T14:35:59;2.00;;;1.90;;
60847;SDS011;46681;47.696;9.140;2023-07-29T14:38:24;1.80;;;1.70;;
60847;SDS011;46681;47.696;9.140;2023-07-29T14:40:56;2.10;;;1.87;;
60847;SDS011;46681;47.696;9.140;2023-07-29T14:43:37;2.37;;;1.90;;
60847;SDS011;46681;47.696;9.140;2023-07-29T14:46:18;2.60;;;2.10;;
60847;SDS011;46681;47.696;9.140;2023-07-29T14:49:01;2.23;;;2.03;;
60847;SDS011;46681;47.696;9.140;2023-07-29T14:51:27;1.60;;;1.50;;
60847;SDS011;46681;47.696;9.140;2023-07-29T14:53:53;1.80;;;1.70;;
60847;SDS011;46681;47.696;9.140;2023-07-29T14:56:25;1.83;;;1.73;;
60847;SDS011;46681;47.696;9.140;2023-07-29T14:59:02;2.40;;;2.20;;
60847;SDS011;46681;47.696;9.140;2023-07-29T15:01:40;2.07;;;1.90;;
60847;SDS011;46681;47.696;9.140;2023-07-29T15:04:12;2.50;;;2.30;;
60847;SDS011;46681;47.696;9.140;2023-07-29T15:09:53;2.93;;;2.20;;
60847;SDS011;46681;47.696;9.140;2023-07-29T15:13:02;1.87;;;1.77;;
60847;SDS011;46681;47.696;9.140;2023-07-29T15:15:46;2.13;;;1.93;;
60847;SDS011;46681;47.696;9.140;2023-07-29T15:19:02;2.00;;;1.90;;
60847;SDS011;46681;47.696;9.140;2023-07-29T15:24:54;2.40;;;2.20;;
60847;SDS011;46681;47.696;9.140;2023-07-29T15:27:28;2.40;;;2.20;;
60847;SDS011;46681;47.696;9.140;2023-07-29T15:30:05;2.37;;;2.17;;
60847;SDS011;46681;47.696;9.140;2023-07-29T15:32:41;2.20;;;2.10;;
60847;SDS011;46681;47.696;9.140;2023-07-29T15:38:01;2.70;;;1.90;;
60847;SDS011;46681;47.696;9.140;2023-07-29T15:40:39;2.30;;;2.10;;
60847;SDS011;46681;47.696;9.140;2023-07-29T15:43:07;2.50;;;2.30;;
60847;SDS011;46681;47.696;9.140;2023-07-29T15:45:34;2.50;;;2.30;;
60847;SDS011;46681;47.696;9.140;2023-07-29T15:48:04;2.07;;;1.93;;
60847;SDS011;46681;47.696;9.140;2023-07-29T15:50:34;2.20;;;2.10;;
60847;SDS011;46681;47.696;9.140;2023-07-29T15:53:21;2.60;;;2.40;;
60847;SDS011;46681;47.696;9.140;2023-07-29T15:55:50;2.70;;;2.50;;
60847;SDS011;46681;47.696;9.140;2023-07-29T15:58:22;3.93;;;3.40;;
60847;SDS011;46681;47.696;9.140;2023-07-29T16:00:50;4.17;;;3.70;;
60847;SDS011;46681;47.696;9.140;2023-07-29T16:03:22;3.77;;;3.47;;
60847;SDS011;46681;47.696;9.140;2023-07-29T16:05:53;4.23;;;3.83;;
60847;SDS011;46681;47.696;9.140;2023-07-29T16:08:27;4.97;;;4.37;;
60847;SDS011;46681;47.696;9.140;2023-07-29T16:10:53;4.50;;;3.70;;
60847;SDS011;46681;47.696;9.140;2023-07-29T16:13:23;5.00;;;4.37;;
60847;SDS011;46681;47.696;9.140;2023-07-29T16:15:52;4.97;;;4.57;;
60847;SDS011;46681;47.696;9.140;2023-07-29T16:18:21;4.20;;;3.80;;
60847;SDS011;46681;47.696;9.140;2023-07-29T16:20:47;3.97;;;3.67;;
60847;SDS011;46681;47.696;9.140;2023-07-29T16:23:13;6.23;;;5.63;;
60847;SDS011;46681;47.696;9.140;2023-07-29T16:25:40;7.60;;;6.97;;
60847;SDS011;46681;47.696;9.140;2023-07-29T16:28:07;7.67;;;6.87;;
60847;SDS011;46681;47.696;9.140;2023-07-29T16:30:34;6.33;;;5.73;;
60847;SDS011;46681;47.696;9.140;2023-07-29T16:33:01;7.00;;;6.40;;
60847;SDS011;46681;47.696;9.140;2023-07-29T16:35:29;7.40;;;6.70;;
60847;SDS011;46681;47.696;9.140;2023-07-29T16:38:00;6.47;;;5.87;;
60847;SDS011;46681;47.696;9.140;2023-07-29T16:40:27;6.20;;;5.70;;
60847;SDS011;46681;47.696;9.140;2023-07-29T16:42:53;5.73;;;5.17;;
60847;SDS011;46681;47.696;9.140;2023-07-29T16:45:18;5.20;;;4.67;;
60847;SDS011;46681;47.696;9.140;2023-07-29T16:47:48;5.07;;;4.67;;
60847;SDS011;46681;47.696;9.140;2023-07-29T16:50:15;4.70;;;4.20;;
60847;SDS011;46681;47.696;9.140;2023-07-29T16:52:41;4.07;;;3.77;;
60847;SDS011;46681;47.696;9.140;2023-07-29T16:55:06;4.77;;;4.37;;
60847;SDS011;46681;47.696;9.140;2023-07-29T16:57:33;4.23;;;3.83;;
60847;SDS011;46681;47.696;9.140;2023-07-29T16:59:59;3.43;;;3.23;;
60847;SDS011;46681;47.696;9.140;2023-07-29T17:02:27;4.00;;;3.60;;
60847;SDS011;46681;47.696;9.140;2023-07-29T17:04:58;3.70;;;3.40;;
60847;SDS011;46681;47.696;9.140;2023-07-29T17:07:34;3.83;;;3.53;;
60847;SDS011;46681;47.696;9.140;2023-07-29T17:10:09;3.70;;;3.40;;
60847;SDS011;46681;47.696;9.140;2023-07-29T17:12:40;3.40;;;3.07;;
60847;SDS011;46681;47.696;9.140;2023-07-29T17:15:06;4.17;;;3.77;;
60847;SDS011;46681;47.696;9.140;2023-07-29T17:17:36;3.27;;;3.07;;
60847;SDS011;46681;47.696;9.140;2023-07-29T17:20:09;3.70;;;3.27;;
60847;SDS011;46681;47.696;9.140;2023-07-29T17:22:34;2.77;;;2.57;;
60847;SDS011;46681;47.696;9.140;2023-07-29T17:25:00;4.10;;;3.10;;
60847;SDS011;46681;47.696;9.140;2023-07-29T17:27:26;2.93;;;2.73;;
60847;SDS011;46681;47.696;9.140;2023-07-29T17:29:58;3.20;;;3.00;;
60847;SDS011;46681;47.696;9.140;2023-07-29T17:32:25;3.47;;;3.17;;
60847;SDS011;46681;47.696;9.140;2023-07-29T17:34:55;3.23;;;2.93;;
60847;SDS011;46681;47.696;9.140;2023-07-29T17:37:21;3.07;;;2.87;;
60847;SDS011;46681;47.696;9.140;2023-07-29T17:39:47;2.80;;;2.60;;
60847;SDS011;46681;47.696;9.140;2023-07-29T17:42:13;3.40;;;3.10;;
60847;SDS011;46681;47.696;9.140;2023-07-29T17:44:42;2.77;;;2.57;;
60847;SDS011;46681;47.696;9.140;2023-07-29T17:47:19;3.00;;;2.80;;
60847;SDS011;46681;47.696;9.140;2023-07-29T17:49:47;3.10;;;2.90;;
60847;SDS011;46681;47.696;9.140;2023-07-29T17:52:13;2.63;;;2.33;;
60847;SDS011;46681;47.696;9.140;2023-07-29T17:54:39;2.50;;;2.40;;
60847;SDS011;46681;47.696;9.140;2023-07-29T17:57:10;2.57;;;2.37;;
60847;SDS011;46681;47.696;9.140;2023-07-29T17:59:36;2.80;;;2.60;;
60847;SDS011;46681;47.696;9.140;2023-07-29T18:02:08;2.63;;;2.43;;
60847;SDS011;46681;47.696;9.140;2023-07-29T18:04:37;2.90;;;2.70;;
60847;SDS011;46681;47.696;9.140;2023-07-29T18:07:05;2.90;;;2.70;;
60847;SDS011;46681;47.696;9.140;2023-07-29T18:09:36;2.77;;;2.57;;
60847;SDS011;46681;47.696;9.140;2023-07-29T18:12:05;3.03;;;2.83;;
60847;SDS011;46681;47.696;9.140;2023-07-29T18:14:34;2.70;;;2.50;;